Time;durP1;ratioP1;P1;durP2;ratioP2;P2;SDS_P1;SDS_P2;PMS_P1;PMS_P2;Temp;Humidity;BMP_temperature;BMP_pressure;BME280_temperature;BME280_humidity;BME280_pressure;Samples;Min_cycle;Max_cycle;Signal;HPM_P1;HPM_P2
2023/11/27 00:02:15;73555.00;0.25;127.90;0.00;0.00;0.62;;;;;11.60;1.00;;;;;;2280440;60;1078;-86
2023/11/27 00:04:42;64093.00;0.21;111.55;0.00;0.00;0.62;;;;;11.40;1.00;;;;;;2280375;60;1363;-86
2023/11/27 00:07:09;109443.00;0.36;189.87;0.00;0.00;0.62;;;;;11.00;1.00;;;;;;2280362;60;1038;-86
2023/11/27 00:09:36;157992.00;0.53;273.58;32672.00;0.11;57.21;;;;;10.90;1.00;;;;;;2280320;60;1107;-85
2023/11/27 00:12:03;51372.00;0.17;89.56;0.00;0.00;0.62;;;;;11.00;1.00;;;;;;2280421;60;1058;-86
2023/11/27 00:14:31;78205.00;0.26;135.94;0.00;0.00;0.62;;;;;10.80;1.00;;;;;;2280337;60;1342;-87
2023/11/27 00:16:58;120025.00;0.40;208.13;0.00;0.00;0.62;;;;;10.70;1.00;;;;;;2280275;60;1911;-86
2023/11/27 00:19:28;202956.00;0.68;351.01;0.00;0.00;0.62;;;;;10.50;1.00;;;;;;2280343;60;1050;-86
2023/11/27 00:21:55;209642.00;0.70;362.52;22095.00;0.07;38.90;;;;;10.50;1.00;;;;;;2280324;60;991;-85
2023/11/27 00:24:21;25359.00;0.08;44.55;0.00;0.00;0.62;;;;;10.30;1.00;;;;;;2280378;60;1058;-86
2023/11/27 00:26:48;84903.00;0.28;147.51;0.00;0.00;0.62;;;;;10.10;1.00;;;;;;2280271;60;1358;-85
2023/11/27 00:29:15;55785.00;0.19;97.19;0.00;0.00;0.62;;;;;10.00;1.00;;;;;;2280326;60;925;-85
2023/11/27 00:31:43;91455.00;0.30;158.82;0.00;0.00;0.62;;;;;10.30;1.00;;;;;;2280238;60;1118;-85
2023/11/27 00:34:10;95826.00;0.32;166.37;0.00;0.00;0.62;;;;;10.60;1.00;;;;;;2280198;60;1442;-87
2023/11/27 00:36:38;117676.00;0.39;204.07;0.00;0.00;0.62;;;;;10.80;1.00;;;;;;2280265;60;2007;-87
2023/11/27 00:39:08;0.00;0.00;0.62;0.00;0.00;0.62;;;;;10.90;1.00;;;;;;2280263;60;3092;-86
2023/11/27 00:41:35;133625.00;0.45;231.58;0.00;0.00;0.62;;;;;10.90;1.00;;;;;;2280323;60;1720;-87
2023/11/27 00:44:02;126814.00;0.42;219.84;0.00;0.00;0.62;;;;;11.20;1.00;;;;;;2280252;60;1020;-86
2023/11/27 00:46:29;6007.00;0.02;11.03;0.00;0.00;0.62;;;;;11.40;1.00;;;;;;2280275;60;1304;-86
2023/11/27 00:48:57;58935.00;0.20;102.64;0.00;0.00;0.62;;;;;11.50;1.00;;;;;;2280261;60;1122;-87
2023/11/27 00:51:24;39591.00;0.13;69.18;0.00;0.00;0.62;;;;;11.50;1.00;;;;;;2280265;60;1102;-86
2023/11/27 00:53:51;266890.00;0.89;461.00;16647.00;0.06;29.46;;;;;11.40;1.00;;;;;;2280207;60;1409;-86
2023/11/27 00:56:17;205149.00;0.68;354.79;24533.00;0.08;43.12;;;;;11.30;1.00;;;;;;2280131;60;1996;-88
2023/11/27 00:58:46;53330.00;0.18;92.94;0.00;0.00;0.62;;;;;11.40;1.00;;;;;;2280248;60;1016;-86
2023/11/27 01:01:13;38551.00;0.13;67.38;0.00;0.00;0.62;;;;;11.60;1.00;;;;;;2280238;60;931;-86
2023/11/27 01:03:39;28598.00;0.10;50.16;0.00;0.00;0.62;;;;;11.70;1.00;;;;;;2280219;60;1071;-88
2023/11/27 01:06:14;318197.00;1.06;549.20;0.00;0.00;0.62;;;;;11.70;1.00;;;;;;2280185;60;1353;-87
2023/11/27 01:08:42;269846.00;0.90;466.08;0.00;0.00;0.62;;;;;11.70;1.00;;;;;;2280144;60;1134;-86
2023/11/27 01:11:09;177037.00;0.59;306.39;39103.00;0.13;68.34;;;;;11.70;1.00;;;;;;2280197;60;1029;-87
2023/11/27 01:13:36;50348.00;0.17;87.79;0.00;0.00;0.62;;;;;11.60;1.00;;;;;;2280222;60;973;-87
2023/11/27 01:16:03;68823.00;0.23;119.73;0.00;0.00;0.62;;;;;11.60;1.00;;;;;;2280086;60;2004;-87
2023/11/27 01:18:31;73914.00;0.25;128.52;0.00;0.00;0.62;;;;;11.60;1.00;;;;;;2280170;60;931;-87
2023/11/27 01:20:58;40911.00;0.14;71.46;0.00;0.00;0.62;;;;;11.60;1.00;;;;;;2280134;60;1006;-86
2023/11/27 01:23:27;156246.00;0.52;270.57;0.00;0.00;0.62;;;;;11.80;1.00;;;;;;2280159;60;944;-86
2023/11/27 01:25:54;145500.00;0.49;252.05;0.00;0.00;0.62;;;;;11.80;1.00;;;;;;2280127;60;1532;-85
2023/11/27 01:28:21;63413.00;0.21;110.38;0.00;0.00;0.62;;;;;11.70;1.00;;;;;;2280129;60;1015;-87
2023/11/27 01:30:47;84916.00;0.28;147.53;0.00;0.00;0.62;;;;;11.40;1.00;;;;;;2280084;60;1069;-85
2023/11/27 01:33:15;141577.00;0.47;245.29;20116.00;0.07;35.47;;;;;11.00;1.00;;;;;;2280159;60;1015;-86
2023/11/27 01:35:42;251266.00;0.84;434.13;0.00;0.00;0.62;;;;;10.30;1.00;;;;;;2280029;60;2008;-86
2023/11/27 01:38:10;49743.00;0.17;86.74;0.00;0.00;0.62;;;;;9.90;1.00;;;;;;2280158;60;1022;-85
2023/11/27 01:40:38;60582.00;0.20;105.48;0.00;0.00;0.62;;;;;9.90;1.00;;;;;;2311711;56;3777;-85
2023/11/27 01:43:14;13486.00;0.04;23.99;0.00;0.00;0.62;;;;;10.00;1.00;;;;;;2280052;60;1731;-85
2023/11/27 01:45:41;36194.00;0.12;63.30;0.00;0.00;0.62;;;;;10.40;1.00;;;;;;2277797;60;1360;-86
2023/11/27 01:48:08;103581.00;0.35;179.75;0.00;0.00;0.62;;;;;10.50;1.00;;;;;;2276055;61;1118;-86
2023/11/27 01:50:35;260451.00;0.87;449.92;0.00;0.00;0.62;;;;;10.20;1.00;;;;;;2275994;61;1565;-86
2023/11/27 01:53:03;10185.00;0.03;18.27;0.00;0.00;0.62;;;;;10.20;1.00;;;;;;2275945;61;1406;-86
2023/11/27 01:55:31;48077.00;0.16;83.86;0.00;0.00;0.62;;;;;10.50;1.00;;;;;;2276010;61;1334;-86
2023/11/27 01:58:00;92973.00;0.31;161.44;0.00;0.00;0.62;;;;;10.40;1.00;;;;;;2275878;61;1928;-84
2023/11/27 02:00:33;62359.00;0.21;108.55;0.00;0.00;0.62;;;;;10.40;1.00;;;;;;2276051;61;1095;-86
2023/11/27 02:03:01;71840.00;0.24;124.94;0.00;0.00;0.62;;;;;10.50;1.00;;;;;;2276029;61;982;-86
2023/11/27 02:05:28;64820.00;0.22;112.81;0.00;0.00;0.62;;;;;10.50;1.00;;;;;;2275897;61;1374;-85
2023/11/27 02:07:55;36843.00;0.12;64.43;0.00;0.00;0.62;;;;;10.80;1.00;;;;;;2275973;61;1065;-86
2023/11/27 02:10:21;150553.00;0.50;260.76;0.00;0.00;0.62;;;;;10.70;1.00;;;;;;2275971;61;1069;-86
2023/11/27 02:12:48;83175.00;0.28;144.52;0.00;0.00;0.62;;;;;10.90;1.00;;;;;;2275920;61;1001;-86
2023/11/27 02:15:17;64470.00;0.21;112.20;0.00;0.00;0.62;;;;;11.10;1.00;;;;;;2276013;61;1261;-86
2023/11/27 02:17:44;77751.00;0.26;135.15;0.00;0.00;0.62;;;;;11.30;1.00;;;;;;2275907;61;2001;-85
2023/11/27 02:20:11;47030.00;0.16;82.05;0.00;0.00;0.62;;;;;11.20;1.00;;;;;;2275920;61;1044;-86
2023/11/27 02:22:38;295719.00;0.99;510.56;12469.00;0.04;22.23;;;;;11.20;1.00;;;;;;2275963;61;1093;-86
2023/11/27 02:25:08;127879.00;0.43;221.67;0.00;0.00;0.62;;;;;11.20;1.00;;;;;;2275810;61;1449;-85
2023/11/27 02:27:34;12397.00;0.04;22.10;0.00;0.00;0.62;;;;;11.40;1.00;;;;;;2275953;61;1070;-86
2023/11/27 02:30:01;103053.00;0.34;178.84;0.00;0.00;0.62;;;;;11.00;1.00;;;;;;2275882;61;1128;-86
2023/11/27 02:32:28;0.00;0.00;0.62;0.00;0.00;0.62;;;;;11.00;1.00;;;;;;2275800;61;1629;-85
2023/11/27 02:34:55;69825.00;0.23;121.46;0.00;0.00;0.62;;;;;11.00;1.00;;;;;;2286859;40;3530;-85
2023/11/27 02:37:22;45527.00;0.15;79.45;0.00;0.00;0.62;;;;;11.00;1.00;;;;;;2275663;61;2006;-84
2023/11/27 02:39:49;146724.00;0.49;254.16;0.00;0.00;0.62;;;;;10.90;1.00;;;;;;2275707;61;1085;-85
2023/11/27 02:42:17;114949.00;0.38;199.37;0.00;0.00;0.62;;;;;11.00;1.00;;;;;;2275676;61;1043;-85
2023/11/27 02:44:44;115536.00;0.39;200.38;0.00;0.00;0.62;;;;;11.00;1.00;;;;;;2275588;61;1685;-87
2023/11/27 02:47:11;68094.00;0.23;118.47;0.00;0.00;0.62;;;;;10.70;1.00;;;;;;2275810;61;1044;-85
2023/11/27 02:49:38;18710.00;0.06;33.04;0.00;0.00;0.62;;;;;10.50;1.00;;;;;;2275817;61;1030;-85
2023/11/27 02:52:05;67812.00;0.23;117.98;0.00;0.00;0.62;;;;;10.20;1.00;;;;;;2275791;61;1075;-85
2023/11/27 02:54:32;92804.00;0.31;161.15;0.00;0.00;0.62;;;;;10.20;1.00;;;;;;2275751;61;1277;-85
2023/11/27 02:56:59;0.00;0.00;0.62;0.00;0.00;0.62;;;;;10.50;1.00;;;;;;2276343;61;1922;-86
2023/11/27 02:59:27;49528.00;0.17;86.37;0.00;0.00;0.62;;;;;10.40;1.00;;;;;;2276552;61;1035;-84
2023/11/27 03:01:57;60277.00;0.20;104.96;0.00;0.00;0.62;;;;;10.70;1.00;;;;;;2276523;61;1080;-87
2023/11/27 03:04:29;35412.00;0.12;61.95;0.00;0.00;0.62;;;;;10.80;1.00;;;;;;2276537;61;1082;-85
2023/11/27 03:06:55;129453.00;0.43;224.39;0.00;0.00;0.62;;;;;10.90;1.00;;;;;;2276465;61;1055;-85
2023/11/27 03:09:22;177299.00;0.59;306.84;23468.00;0.08;41.28;;;;;10.70;1.00;;;;;;2276541;61;1062;-85
2023/11/27 03:11:49;15385.00;0.05;27.28;0.00;0.00;0.62;;;;;10.20;1.00;;;;;;2276495;61;1447;-84
2023/11/27 03:14:16;36504.00;0.12;63.84;0.00;0.00;0.62;;;;;10.20;1.00;;;;;;2276448;61;2126;-86
2023/11/27 03:16:45;216737.00;0.72;374.73;0.00;0.00;0.62;;;;;10.10;1.00;;;;;;2276356;61;2001;-85
2023/11/27 03:19:12;41193.00;0.14;71.95;0.00;0.00;0.62;;;;;10.00;1.00;;;;;;2276457;61;1100;-86
2023/11/27 03:21:39;53371.00;0.18;93.02;0.00;0.00;0.62;;;;;10.00;1.00;;;;;;2276347;61;1011;-85
2023/11/27 03:24:06;103127.00;0.34;178.97;0.00;0.00;0.62;;;;;9.90;1.00;;;;;;2276465;61;1040;-85
2023/11/27 03:26:34;72918.00;0.24;126.80;0.00;0.00;0.62;;;;;9.80;1.00;;;;;;2276406;61;1297;-85
2023/11/27 03:29:01;21252.00;0.07;37.44;0.00;0.00;0.62;;;;;9.70;1.00;;;;;;2276548;61;1096;-86
2023/11/27 03:31:28;291646.00;0.97;503.56;78200.00;0.26;135.93;;;;;9.70;1.00;;;;;;2276384;61;949;-85
2023/11/27 03:33:57;28931.00;0.10;50.73;0.00;0.00;0.62;;;;;9.70;1.00;;;;;;2276351;61;1106;-86
2023/11/27 03:36:24;145751.00;0.49;252.48;0.00;0.00;0.62;;;;;8.90;1.00;;;;;;2281148;55;3801;-86
2023/11/27 03:38:51;71724.00;0.24;124.74;0.00;0.00;0.62;;;;;8.60;1.00;;;;;;2280473;60;1149;-86
2023/11/27 03:41:18;130451.00;0.43;226.11;0.00;0.00;0.62;;;;;8.30;1.00;;;;;;2303595;56;3767;-85
2023/11/27 03:43:46;16232.00;0.05;28.74;0.00;0.00;0.62;;;;;8.60;1.00;;;;;;2280380;60;1001;-85
2023/11/27 03:46:13;0.00;0.00;0.62;0.00;0.00;0.62;;;;;8.80;1.00;;;;;;2277239;60;1378;-86
2023/11/27 03:48:39;75410.00;0.25;131.11;0.00;0.00;0.62;;;;;9.10;1.00;;;;;;2282590;39;3584;-86
2023/11/27 03:51:08;81643.00;0.27;141.88;0.00;0.00;0.62;;;;;9.40;1.00;;;;;;2280378;60;1097;-86
2023/11/27 03:53:35;83878.00;0.28;145.74;0.00;0.00;0.62;;;;;9.60;1.00;;;;;;2282147;55;3721;-86
2023/11/27 03:56:04;54226.00;0.18;94.49;0.00;0.00;0.62;;;;;10.00;1.00;;;;;;2277441;60;1352;-86
2023/11/27 03:58:31;58490.00;0.19;101.87;0.00;0.00;0.62;;;;;10.30;1.00;;;;;;2276246;61;2014;-86
2023/11/27 04:00:58;11664.00;0.04;20.83;0.00;0.00;0.62;;;;;10.50;1.00;;;;;;2276447;61;1078;-86
2023/11/27 04:03:25;84650.00;0.28;147.07;0.00;0.00;0.62;;;;;10.70;1.00;;;;;;2276640;61;1021;-86
2023/11/27 04:05:52;37482.00;0.12;65.53;0.00;0.00;0.62;;;;;10.10;1.00;;;;;;2276627;61;1448;-86
2023/11/27 04:08:20;90348.00;0.30;156.91;0.00;0.00;0.62;;;;;9.60;1.00;;;;;;2276469;61;1100;-84
2023/11/27 04:10:47;37714.00;0.13;65.93;0.00;0.00;0.62;;;;;9.50;1.00;;;;;;2276605;61;1553;-85
2023/11/27 04:13:14;252675.00;0.84;436.55;50027.00;0.17;87.23;;;;;9.40;1.00;;;;;;2276637;61;923;-83
2023/11/27 04:15:42;0.00;0.00;0.62;0.00;0.00;0.62;;;;;9.30;1.00;;;;;;2276566;61;1367;-84
2023/11/27 04:18:09;10331.00;0.03;18.52;0.00;0.00;0.62;;;;;9.50;1.00;;;;;;2276617;61;1998;-85
2023/11/27 04:20:36;253327.00;0.84;437.67;21455.00;0.07;37.79;;;;;9.50;1.00;;;;;;2276618;61;1055;-85
2023/11/27 04:23:03;5017.00;0.02;9.32;0.00;0.00;0.62;;;;;9.50;1.00;;;;;;2276642;61;1064;-85
2023/11/27 04:25:31;0.00;0.00;0.62;0.00;0.00;0.62;;;;;9.60;1.00;;;;;;2276590;61;1399;-86
2023/11/27 04:27:58;43637.00;0.15;76.18;0.00;0.00;0.62;;;;;9.70;1.00;;;;;;2276582;61;1087;-85
2023/11/27 04:30:25;5608.00;0.02;10.34;0.00;0.00;0.62;;;;;9.90;1.00;;;;;;2276560;61;1119;-86
2023/11/27 04:32:52;171411.00;0.57;296.70;18079.00;0.06;31.94;;;;;10.20;1.00;;;;;;2276517;61;1028;-85
2023/11/27 04:35:19;0.00;0.00;0.62;0.00;0.00;0.62;;;;;10.40;1.00;;;;;;2276522;61;1332;-84
2023/11/27 04:37:46;21601.00;0.07;38.04;0.00;0.00;0.62;;;;;10.30;1.00;;;;;;2276467;61;1915;-84
2023/11/27 04:40:14;1844.00;0.01;3.82;0.00;0.00;0.62;;;;;10.30;1.00;;;;;;2276544;61;1685;-84
2023/11/27 04:42:43;16079.00;0.05;28.48;0.00;0.00;0.62;;;;;10.10;1.00;;;;;;2276485;61;1054;-85
2023/11/27 04:45:10;111301.00;0.37;193.07;0.00;0.00;0.62;;;;;9.50;1.00;;;;;;2276517;61;1365;-86
2023/11/27 04:47:37;41118.00;0.14;71.82;0.00;0.00;0.62;;;;;9.10;1.00;;;;;;2276542;61;1065;-85
2023/11/27 04:50:06;109312.00;0.36;189.64;0.00;0.00;0.62;;;;;8.70;1.00;;;;;;2276506;61;1041;-85
2023/11/27 04:52:33;9298.00;0.03;16.73;0.00;0.00;0.62;;;;;9.00;1.00;;;;;;2276483;61;1094;-85
2023/11/27 04:55:02;17395.00;0.06;30.76;0.00;0.00;0.62;;;;;9.20;1.00;;;;;;2276382;61;1320;-86
2023/11/27 04:57:29;102027.00;0.34;177.07;19964.00;0.07;35.21;;;;;9.40;1.00;;;;;;2276453;61;1911;-87
2023/11/27 04:59:58;16161.00;0.05;28.62;0.00;0.00;0.62;;;;;9.40;1.00;;;;;;2276524;61;1131;-87
2023/11/27 05:02:25;47471.00;0.16;82.81;0.00;0.00;0.62;;;;;9.50;1.00;;;;;;2276478;61;1035;-85
2023/11/27 05:04:52;4575.00;0.02;8.55;0.00;0.00;0.62;;;;;9.80;1.00;;;;;;2276479;61;1318;-86
2023/11/27 05:07:19;0.00;0.00;0.62;0.00;0.00;0.62;;;;;10.10;1.00;;;;;;2276467;61;1101;-85
2023/11/27 05:09:46;25797.00;0.09;45.31;0.00;0.00;0.62;;;;;10.50;1.00;;;;;;2276469;61;1052;-86
2023/11/27 05:12:13;0.00;0.00;0.62;0.00;0.00;0.62;;;;;10.70;1.00;;;;;;2276436;61;1042;-85
2023/11/27 05:14:40;6347.00;0.02;11.62;0.00;0.00;0.62;;;;;10.90;1.00;;;;;;2276437;61;1238;-84
2023/11/27 05:17:08;105072.00;0.35;182.33;0.00;0.00;0.62;;;;;10.60;1.00;;;;;;2276335;61;1923;-86
2023/11/27 05:19:35;27119.00;0.09;47.60;0.00;0.00;0.62;;;;;10.30;1.00;;;;;;2276435;61;1550;-85
2023/11/27 05:22:02;17571.00;0.06;31.06;0.00;0.00;0.62;;;;;10.10;1.00;;;;;;2276383;61;1083;-85
2023/11/27 05:24:29;18633.00;0.06;32.90;0.00;0.00;0.62;;;;;10.10;1.00;;;;;;2276421;61;1390;-86
2023/11/27 05:26:57;3100.00;0.01;5.99;0.00;0.00;0.62;;;;;9.80;1.00;;;;;;2276464;61;1086;-86
2023/11/27 05:29:24;25993.00;0.09;45.65;0.00;0.00;0.62;;;;;9.90;1.00;;;;;;2276425;61;1054;-85
2023/11/27 05:31:51;55022.00;0.18;95.87;0.00;0.00;0.62;;;;;9.30;1.00;;;;;;2276395;61;1042;-88
2023/11/27 05:34:20;23743.00;0.08;41.75;0.00;0.00;0.62;;;;;9.00;1.00;;;;;;2276405;61;1767;-86
2023/11/27 05:36:47;78198.00;0.26;135.92;0.00;0.00;0.62;;;;;9.20;1.00;;;;;;2276336;61;1371;-85
2023/11/27 05:39:15;79193.00;0.26;137.64;8262.00;0.03;14.94;;;;;9.00;1.00;;;;;;2276355;61;1935;-86
2023/11/27 05:41:42;46144.00;0.15;80.52;0.00;0.00;0.62;;;;;8.70;1.00;;;;;;2276314;61;1291;-86
2023/11/27 05:44:10;0.00;0.00;0.62;0.00;0.00;0.62;;;;;8.70;1.00;;;;;;2276357;61;1081;-85
2023/11/27 05:46:37;72021.00;0.24;125.25;0.00;0.00;0.62;;;;;8.60;1.00;;;;;;2276264;61;2092;-86
2023/11/27 05:49:05;109519.00;0.37;190.00;0.00;0.00;0.62;;;;;8.60;1.00;;;;;;2276342;61;2094;-84
2023/11/27 05:51:37;5092.00;0.02;9.45;0.00;0.00;0.62;;;;;8.80;1.00;;;;;;2276347;61;1295;-85
2023/11/27 05:54:04;61270.00;0.20;106.67;0.00;0.00;0.62;;;;;9.10;1.00;;;;;;2276287;61;1155;-86
2023/11/27 05:56:31;193351.00;0.64;334.48;25591.00;0.09;44.95;;;;;9.50;1.00;;;;;;2276304;61;1305;-85
2023/11/27 05:58:58;20568.00;0.07;36.25;0.00;0.00;0.62;;;;;9.40;1.00;;;;;;2276109;61;2026;-85
2023/11/27 06:01:25;13885.00;0.05;24.68;0.00;0.00;0.62;;;;;9.60;1.00;;;;;;2276383;61;986;-85
2023/11/27 06:03:52;100020.00;0.33;173.61;7524.00;0.03;13.66;;;;;9.40;1.00;;;;;;2276343;61;924;-85
2023/11/27 06:06:19;65777.00;0.22;114.46;0.00;0.00;0.62;;;;;9.00;1.00;;;;;;2276317;61;1364;-85
2023/11/27 06:08:47;59386.00;0.20;103.42;0.00;0.00;0.62;;;;;9.10;1.00;;;;;;2276306;61;1066;-88
2023/11/27 06:11:14;50243.00;0.17;87.61;0.00;0.00;0.62;;;;;9.00;1.00;;;;;;2276294;61;917;-85
2023/11/27 06:13:41;28475.00;0.09;49.94;0.00;0.00;0.62;;;;;8.90;1.00;;;;;;2276282;61;1048;-86
2023/11/27 06:16:09;9151.00;0.03;16.48;0.00;0.00;0.62;;;;;9.00;1.00;;;;;;2276231;61;1368;-85
2023/11/27 06:18:36;38540.00;0.13;67.36;0.00;0.00;0.62;;;;;9.10;1.00;;;;;;2276246;61;1908;-85
2023/11/27 06:21:03;4871.00;0.02;9.06;0.00;0.00;0.62;;;;;9.60;1.00;;;;;;2276307;61;1047;-87
2023/11/27 06:23:30;9322.00;0.03;16.77;0.00;0.00;0.62;;;;;9.80;1.00;;;;;;2276268;61;1084;-87
2023/11/27 06:25:58;40366.00;0.13;70.52;0.00;0.00;0.62;;;;;10.10;1.00;;;;;;2276177;61;1362;-86
2023/11/27 06:28:25;0.00;0.00;0.62;0.00;0.00;0.62;;;;;10.20;1.00;;;;;;2276203;61;1114;-85
2023/11/27 06:30:52;29605.00;0.10;51.90;0.00;0.00;0.62;;;;;10.30;1.00;;;;;;2276559;61;958;-86
2023/11/27 06:33:19;62893.00;0.21;109.48;0.00;0.00;0.62;;;;;10.40;1.00;;;;;;2276997;61;1118;-85
2023/11/27 06:35:46;55354.00;0.18;96.44;0.00;0.00;0.62;;;;;10.40;1.00;;;;;;2276909;61;1370;-88
2023/11/27 06:38:13;0.00;0.00;0.62;0.00;0.00;0.62;;;;;10.40;1.00;;;;;;2276854;61;2000;-86
2023/11/27 06:40:40;17952.00;0.06;31.72;0.00;0.00;0.62;;;;;10.70;1.00;;;;;;2276932;61;1128;-86
2023/11/27 06:43:08;18603.00;0.06;32.85;0.00;0.00;0.62;;;;;10.90;1.00;;;;;;2276993;61;1014;-86
2023/11/27 06:45:37;23114.00;0.08;40.66;0.00;0.00;0.62;;;;;11.00;1.00;;;;;;2276861;61;2046;-87
2023/11/27 06:48:04;52763.00;0.18;91.96;0.00;0.00;0.62;;;;;11.00;1.00;;;;;;2276917;61;929;-86
2023/11/27 06:50:31;148941.00;0.50;257.98;0.00;0.00;0.62;;;;;11.00;1.00;;;;;;2276919;61;1063;-86
2023/11/27 06:52:57;54727.00;0.18;95.36;0.00;0.00;0.62;;;;;11.10;1.00;;;;;;2276840;61;1093;-85
2023/11/27 06:55:24;43629.00;0.15;76.17;0.00;0.00;0.62;;;;;11.00;1.00;;;;;;2276756;61;1656;-85
2023/11/27 06:57:51;97365.00;0.32;169.02;0.00;0.00;0.62;;;;;11.10;1.00;;;;;;2276857;61;1919;-85
2023/11/27 07:00:20;91408.00;0.30;158.74;0.00;0.00;0.62;;;;;11.20;1.00;;;;;;2276858;61;1067;-86
2023/11/27 07:02:47;122606.00;0.41;212.58;55838.00;0.19;97.28;;;;;10.80;1.00;;;;;;2276883;61;1136;-86
2023/11/27 07:05:13;78895.00;0.26;137.13;0.00;0.00;0.62;;;;;11.00;1.00;;;;;;2276795;61;1255;-85
2023/11/27 07:07:40;42861.00;0.14;74.84;0.00;0.00;0.62;;;;;10.90;1.00;;;;;;2276879;61;1067;-84
2023/11/27 07:12:36;22804.00;0.08;40.13;0.00;0.00;0.62;;;;;11.10;1.00;;;;;;2278560;61;1350;-86
2023/11/27 07:15:03;13208.00;0.04;23.51;0.00;0.00;0.62;;;;;11.20;1.00;;;;;;2275789;61;1253;-86
2023/11/27 07:17:31;78738.00;0.26;136.86;0.00;0.00;0.62;;;;;11.00;1.00;;;;;;2272751;61;1915;-84
2023/11/27 07:19:58;51991.00;0.17;90.63;0.00;0.00;0.62;;;;;10.60;1.00;;;;;;2272755;61;975;-85
2023/11/27 07:22:26;79033.00;0.26;137.37;0.00;0.00;0.62;;;;;10.20;1.00;;;;;;2272828;61;939;-85
2023/11/27 07:24:53;6583.00;0.02;12.03;0.00;0.00;0.62;;;;;10.00;1.00;;;;;;2272745;61;1262;-85
2023/11/27 07:27:20;103195.00;0.34;179.09;0.00;0.00;0.62;;;;;10.10;1.00;;;;;;2272710;61;1003;-84
2023/11/27 07:29:47;43397.00;0.14;75.77;0.00;0.00;0.62;;;;;9.90;1.00;;;;;;2272781;61;1079;-85
2023/11/27 07:32:15;0.00;0.00;0.62;0.00;0.00;0.62;;;;;10.00;1.00;;;;;;2272734;61;1059;-84
2023/11/27 07:34:43;18559.00;0.06;32.77;0.00;0.00;0.62;;;;;9.80;1.00;;;;;;2272699;61;1286;-84
2023/11/27 07:37:10;32891.00;0.11;57.59;0.00;0.00;0.62;;;;;9.40;1.00;;;;;;2272716;61;1030;-85
2023/11/27 07:39:37;0.00;0.00;0.62;0.00;0.00;0.62;;;;;9.00;1.00;;;;;;2272657;61;2286;-85
2023/11/27 07:42:04;11759.00;0.04;21.00;0.00;0.00;0.62;;;;;8.90;1.00;;;;;;2272456;61;1016;-87
2023/11/27 07:44:31;104912.00;0.35;182.05;0.00;0.00;0.62;;;;;8.80;1.00;;;;;;2272673;61;1325;-87
2023/11/27 07:46:58;96351.00;0.32;167.27;38124.00;0.13;66.64;;;;;8.80;1.00;;;;;;2272702;61;1020;-85
2023/11/27 07:49:25;0.00;0.00;0.62;0.00;0.00;0.62;;;;;8.70;1.00;;;;;;2272687;61;1130;-86
2023/11/27 07:51:57;39470.00;0.13;68.97;0.00;0.00;0.62;;;;;8.90;1.00;;;;;;2272701;61;1063;-86
2023/11/27 07:54:25;119946.00;0.40;207.99;0.00;0.00;0.62;;;;;8.60;1.00;;;;;;2272566;61;1009;-85
2023/11/27 07:56:53;41553.00;0.14;72.58;0.00;0.00;0.62;;;;;8.60;1.00;;;;;;2272640;61;1367;-86
2023/11/27 07:59:20;0.00;0.00;0.62;0.00;0.00;0.62;;;;;8.60;1.00;;;;;;2272635;61;2000;-85
2023/11/27 08:01:46;67708.00;0.23;117.80;0.00;0.00;0.62;;;;;8.80;1.00;;;;;;2272641;61;1032;-86
2023/11/27 08:04:13;23906.00;0.08;42.03;0.00;0.00;0.62;;;;;9.30;1.00;;;;;;2272596;61;1153;-86
2023/11/27 08:06:40;342860.00;1.14;591.59;26009.00;0.09;45.67;;;;;9.90;1.00;;;;;;2272615;61;1290;-86
2023/11/27 08:09:08;16997.00;0.06;30.07;0.00;0.00;0.62;;;;;10.10;1.00;;;;;;2272647;61;1103;-86
2023/11/27 08:11:35;27682.00;0.09;48.57;0.00;0.00;0.62;;;;;10.10;1.00;;;;;;2272545;61;1048;-87
2023/11/27 08:14:02;100300.00;0.33;174.09;0.00;0.00;0.62;;;;;10.40;1.00;;;;;;2272622;61;1131;-87
2023/11/27 08:16:30;89141.00;0.30;154.82;0.00;0.00;0.62;;;;;10.50;1.00;;;;;;2272607;61;1353;-88
2023/11/27 08:18:56;124234.00;0.41;215.39;24536.00;0.08;43.12;;;;;10.30;1.00;;;;;;2272560;61;1928;-86
2023/11/27 08:21:24;202384.00;0.67;350.03;0.00;0.00;0.62;;;;;10.40;1.00;;;;;;2272635;61;1106;-87
2023/11/27 08:23:51;79546.00;0.27;138.25;0.00;0.00;0.62;;;;;10.70;1.00;;;;;;2272616;61;1068;-87
2023/11/27 08:26:20;76932.00;0.26;133.74;0.00;0.00;0.62;;;;;10.30;1.00;;;;;;2272561;61;1385;-86
2023/11/27 08:28:47;111086.00;0.37;192.70;0.00;0.00;0.62;;;;;10.40;1.00;;;;;;2272586;61;997;-85
2023/11/27 08:31:18;327886.00;1.09;565.85;5616.00;0.02;10.35;;;;;10.30;1.00;;;;;;2272443;61;1037;-86
2023/11/27 08:33:46;629681.00;2.10;1085.50;3251.00;0.01;6.25;;;;;10.40;1.00;;;;;;2272527;61;910;-86
2023/11/27 08:36:13;399917.00;1.33;689.66;0.00;0.00;0.62;;;;;10.90;1.00;;;;;;2272503;61;1499;-86
2023/11/27 08:38:40;522977.00;1.74;901.39;53112.00;0.18;92.57;;;;;10.80;1.00;;;;;;2272465;61;1911;-87
2023/11/27 08:41:07;627722.00;2.09;1082.11;44573.00;0.15;77.80;;;;;10.80;1.00;;;;;;2272521;61;1102;-86
2023/11/27 08:43:35;621478.00;2.07;1071.32;16917.00;0.06;29.93;;;;;11.10;1.00;;;;;;2272517;61;1125;-85
2023/11/27 08:46:02;765903.00;2.55;1321.72;110761.00;0.37;192.14;;;;;11.30;1.00;;;;;;2272475;61;1268;-86
2023/11/27 08:48:29;378041.00;1.26;652.06;0.00;0.00;0.62;;;;;11.40;1.00;;;;;;2272470;61;1128;-85
2023/11/27 08:50:56;517882.00;1.73;892.62;11304.00;0.04;20.21;;;;;11.50;1.00;;;;;;2272443;61;1996;-85
2023/11/27 08:53:27;369240.00;1.23;636.93;0.00;0.00;0.62;;;;;11.40;1.00;;;;;;2272494;61;1012;-85
2023/11/27 08:55:55;643028.00;2.14;1108.58;93199.00;0.31;161.83;;;;;11.50;1.00;;;;;;2272465;61;1444;-86
2023/11/27 08:58:21;539135.00;1.80;929.23;84991.00;0.28;147.66;;;;;11.50;1.00;;;;;;2272380;61;1916;-85
2023/11/27 09:00:50;732911.00;2.44;1264.36;30958.00;0.10;54.24;;;;;11.60;1.00;;;;;;2272425;61;2086;-84
2023/11/27 09:03:18;806433.00;2.69;1392.35;44407.00;0.15;77.51;;;;;11.40;1.00;;;;;;2272438;61;1159;-85
2023/11/27 09:05:45;503603.00;1.68;868.03;3257.00;0.01;6.27;;;;;11.60;1.00;;;;;;2272418;61;1281;-88
2023/11/27 09:08:13;672511.00;2.24;1159.60;27484.00;0.09;48.23;;;;;11.30;1.00;;;;;;2272459;61;1086;-86
2023/11/27 09:10:41;118636592.00;395.46;67638928.00;14002.00;0.05;24.88;;;;;11.60;1.00;;;;;;2272336;61;1119;-85
2023/11/27 09:13:09;685440.00;2.28;1182.00;139346.00;0.46;241.44;;;;;11.50;1.00;;;;;;2272413;61;1116;-85
2023/11/27 09:15:36;647029.00;2.16;1115.50;67091.00;0.22;116.73;;;;;11.50;1.00;;;;;;2272381;61;1367;-85
2023/11/27 09:18:05;753038.00;2.51;1299.34;74924.00;0.25;130.27;;;;;10.90;1.00;;;;;;2272405;61;2004;-86
2023/11/27 09:20:33;790515.00;2.64;1364.59;44865.00;0.15;78.30;;;;;11.10;1.00;;;;;;2272442;61;1040;-85
2023/11/27 09:23:00;1045237.00;3.48;1812.76;41930.00;0.14;73.23;;;;;11.60;1.00;;;;;;2272387;61;1053;-86
2023/11/27 09:25:27;666824.00;2.22;1149.75;19218.00;0.06;33.92;;;;;11.30;1.00;;;;;;2272337;61;1316;-86
2023/11/27 09:27:54;696133.00;2.32;1200.53;44484.00;0.15;77.65;;;;;11.60;1.00;;;;;;2272350;61;1423;-87
2023/11/27 09:30:21;629408.00;2.10;1085.03;60203.00;0.20;104.83;;;;;11.60;1.00;;;;;;2272394;61;1059;-86
2023/11/27 09:32:48;638853.00;2.13;1101.36;98135.00;0.33;170.35;;;;;11.40;1.00;;;;;;2272330;61;1118;-86
2023/11/27 09:35:16;581639.00;1.94;1002.53;0.00;0.00;0.62;;;;;11.60;1.00;;;;;;2272336;61;1387;-84
2023/11/27 09:37:44;875385.00;2.92;1512.93;15997.00;0.05;28.34;;;;;11.70;1.00;;;;;;2272351;61;1048;-84
2023/11/27 09:40:13;685705.00;2.29;1182.46;36913.00;0.12;64.55;;;;;11.60;1.00;;;;;;2272303;61;2001;-86
2023/11/27 09:42:41;856379.00;2.85;1479.63;43586.00;0.15;76.09;;;;;11.90;1.00;;;;;;2272345;61;1062;-86
2023/11/27 09:45:10;863156.00;2.88;1491.50;119633.00;0.40;207.45;;;;;12.10;1.00;;;;;;2289326;40;3708;-86
2023/11/27 09:47:38;855397.00;2.85;1477.91;2877.00;0.01;5.61;;;;;12.10;1.00;;;;;;2276321;61;1539;-88
2023/11/27 09:50:09;635492.00;2.12;1095.54;35625.00;0.12;62.32;;;;;12.10;1.00;;;;;;2276326;61;1238;-85
2023/11/27 09:52:50;690756.00;2.30;1191.21;30384.00;0.10;53.25;;;;;12.10;1.00;;;;;;2276331;61;1179;-86
2023/11/27 09:55:20;628967.00;2.10;1084.26;42463.00;0.14;74.15;;;;;12.10;1.00;;;;;;2276209;61;1578;-87
2023/11/27 09:57:48;880686.00;2.94;1522.22;119835.00;0.40;207.80;;;;;12.10;1.00;;;;;;2276272;61;1051;-87
2023/11/27 10:00:18;514791.00;1.72;887.29;23744.00;0.08;41.75;;;;;12.30;1.00;;;;;;2276327;61;2001;-85
2023/11/27 10:02:48;763505.00;2.55;1317.55;102479.00;0.34;177.85;;;;;12.20;1.00;;;;;;2276304;61;977;-88
2023/11/27 10:05:16;416262.00;1.39;717.76;47967.00;0.16;83.67;;;;;12.10;1.00;;;;;;2276081;61;1518;-87
2023/11/27 10:07:46;340325.00;1.13;587.23;11056.00;0.04;19.78;;;;;12.20;1.00;;;;;;2276254;61;1758;-86